sensor_id;sensor_type;location;lat;lon;timestamp;P1;durP1;ratioP1;P2;durP2;ratioP2
30896;SDS011;64229;52.246;21.054;2024-03-06T00:01:31;80.55;;;32.30;;
30896;SDS011;64229;52.246;21.054;2024-03-06T00:03:56;81.90;;;34.00;;
30896;SDS011;64229;52.246;21.054;2024-03-06T00:06:22;81.32;;;33.90;;
30896;SDS011;64229;52.246;21.054;2024-03-06T00:08:48;83.30;;;32.65;;
30896;SDS011;64229;52.246;21.054;2024-03-06T00:11:13;74.30;;;32.72;;
30896;SDS011;64229;52.246;21.054;2024-03-06T00:13:38;76.63;;;33.60;;
30896;SDS011;64229;52.246;21.054;2024-03-06T00:16:04;81.15;;;32.58;;
30896;SDS011;64229;52.246;21.054;2024-03-06T00:18:29;91.72;;;34.78;;
30896;SDS011;64229;52.246;21.054;2024-03-06T00:20:54;73.27;;;28.53;;
30896;SDS011;64229;52.246;21.054;2024-03-06T00:23:19;80.88;;;32.35;;
30896;SDS011;64229;52.246;21.054;2024-03-06T00:25:45;76.95;;;32.38;;
30896;SDS011;64229;52.246;21.054;2024-03-06T00:28:10;79.70;;;33.35;;
30896;SDS011;64229;52.246;21.054;2024-03-06T00:30:35;92.13;;;35.70;;
30896;SDS011;64229;52.246;21.054;2024-03-06T00:33:01;82.60;;;32.70;;
30896;SDS011;64229;52.246;21.054;2024-03-06T00:35:26;80.60;;;33.17;;
30896;SDS011;64229;52.246;21.054;2024-03-06T00:37:51;87.60;;;34.30;;
30896;SDS011;64229;52.246;21.054;2024-03-06T00:40:17;76.95;;;33.55;;
30896;SDS011;64229;52.246;21.054;2024-03-06T00:42:43;85.45;;;33.70;;
30896;SDS011;64229;52.246;21.054;2024-03-06T00:45:08;81.20;;;34.13;;
30896;SDS011;64229;52.246;21.054;2024-03-06T00:47:34;77.78;;;31.50;;
30896;SDS011;64229;52.246;21.054;2024-03-06T00:49:59;87.80;;;33.17;;
30896;SDS011;64229;52.246;21.054;2024-03-06T00:52:25;77.45;;;32.47;;
30896;SDS011;64229;52.246;21.054;2024-03-06T00:54:50;78.27;;;32.50;;
30896;SDS011;64229;52.246;21.054;2024-03-06T00:57:15;74.80;;;32.17;;
30896;SDS011;64229;52.246;21.054;2024-03-06T00:59:40;77.00;;;33.50;;
30896;SDS011;64229;52.246;21.054;2024-03-06T01:02:06;71.85;;;30.35;;
30896;SDS011;64229;52.246;21.054;2024-03-06T01:04:31;83.20;;;33.08;;
30896;SDS011;64229;52.246;21.054;2024-03-06T01:06:56;70.93;;;32.53;;
30896;SDS011;64229;52.246;21.054;2024-03-06T01:09:23;75.65;;;31.10;;
30896;SDS011;64229;52.246;21.054;2024-03-06T01:11:48;73.97;;;33.22;;
30896;SDS011;64229;52.246;21.054;2024-03-06T01:14:14;70.72;;;30.33;;
30896;SDS011;64229;52.246;21.054;2024-03-06T01:16:39;78.05;;;32.40;;
30896;SDS011;64229;52.246;21.054;2024-03-06T01:19:05;79.17;;;32.73;;
30896;SDS011;64229;52.246;21.054;2024-03-06T01:21:30;75.30;;;33.40;;
30896;SDS011;64229;52.246;21.054;2024-03-06T01:23:55;66.40;;;30.85;;
30896;SDS011;64229;52.246;21.054;2024-03-06T01:26:21;66.45;;;28.15;;
30896;SDS011;64229;52.246;21.054;2024-03-06T01:28:46;61.60;;;28.58;;
30896;SDS011;64229;52.246;21.054;2024-03-06T01:31:11;64.43;;;29.55;;
30896;SDS011;64229;52.246;21.054;2024-03-06T01:33:36;65.82;;;29.52;;
30896;SDS011;64229;52.246;21.054;2024-03-06T01:36:02;63.95;;;30.92;;
30896;SDS011;64229;52.246;21.054;2024-03-06T01:38:27;60.80;;;28.02;;
30896;SDS011;64229;52.246;21.054;2024-03-06T01:40:53;61.40;;;28.83;;
30896;SDS011;64229;52.246;21.054;2024-03-06T01:43:22;60.38;;;27.50;;
30896;SDS011;64229;52.246;21.054;2024-03-06T01:45:50;56.75;;;25.63;;
30896;SDS011;64229;52.246;21.054;2024-03-06T01:48:18;58.90;;;26.05;;
30896;SDS011;64229;52.246;21.054;2024-03-06T01:50:50;56.63;;;25.30;;
30896;SDS011;64229;52.246;21.054;2024-03-06T01:53:16;51.03;;;24.05;;
30896;SDS011;64229;52.246;21.054;2024-03-06T01:55:43;53.17;;;23.60;;
30896;SDS011;64229;52.246;21.054;2024-03-06T01:58:09;42.63;;;21.70;;
30896;SDS011;64229;52.246;21.054;2024-03-06T02:00:34;53.60;;;24.02;;
30896;SDS011;64229;52.246;21.054;2024-03-06T02:03:00;50.45;;;22.33;;
30896;SDS011;64229;52.246;21.054;2024-03-06T02:05:26;46.40;;;22.45;;
30896;SDS011;64229;52.246;21.054;2024-03-06T02:07:53;50.08;;;22.23;;
30896;SDS011;64229;52.246;21.054;2024-03-06T02:10:18;47.97;;;21.67;;
30896;SDS011;64229;52.246;21.054;2024-03-06T02:12:44;42.72;;;22.02;;
30896;SDS011;64229;52.246;21.054;2024-03-06T02:15:10;42.50;;;20.70;;
30896;SDS011;64229;52.246;21.054;2024-03-06T02:17:37;45.20;;;20.77;;
30896;SDS011;64229;52.246;21.054;2024-03-06T02:20:02;46.35;;;19.90;;
30896;SDS011;64229;52.246;21.054;2024-03-06T02:22:30;47.08;;;20.45;;
30896;SDS011;64229;52.246;21.054;2024-03-06T02:24:56;38.25;;;20.00;;
30896;SDS011;64229;52.246;21.054;2024-03-06T02:27:21;48.75;;;20.88;;
30896;SDS011;64229;52.246;21.054;2024-03-06T02:29:47;41.87;;;21.33;;
30896;SDS011;64229;52.246;21.054;2024-03-06T02:32:12;44.13;;;20.38;;
30896;SDS011;64229;52.246;21.054;2024-03-06T02:34:39;37.20;;;19.45;;
30896;SDS011;64229;52.246;21.054;2024-03-06T02:37:05;41.58;;;19.38;;
30896;SDS011;64229;52.246;21.054;2024-03-06T02:39:31;40.22;;;18.55;;
30896;SDS011;64229;52.246;21.054;2024-03-06T02:41:56;39.85;;;19.23;;
30896;SDS011;64229;52.246;21.054;2024-03-06T02:44:22;38.78;;;19.13;;
30896;SDS011;64229;52.246;21.054;2024-03-06T02:46:47;42.70;;;19.80;;
30896;SDS011;64229;52.246;21.054;2024-03-06T02:49:14;42.90;;;19.67;;
30896;SDS011;64229;52.246;21.054;2024-03-06T02:51:40;40.25;;;19.52;;
30896;SDS011;64229;52.246;21.054;2024-03-06T02:54:05;44.43;;;18.57;;
30896;SDS011;64229;52.246;21.054;2024-03-06T02:56:31;43.40;;;19.27;;
30896;SDS011;64229;52.246;21.054;2024-03-06T02:58:56;42.92;;;19.33;;
30896;SDS011;64229;52.246;21.054;2024-03-06T03:01:22;36.67;;;19.35;;
30896;SDS011;64229;52.246;21.054;2024-03-06T03:03:48;37.67;;;19.15;;
30896;SDS011;64229;52.246;21.054;2024-03-06T03:06:13;39.92;;;18.88;;
30896;SDS011;64229;52.246;21.054;2024-03-06T03:08:39;36.85;;;18.17;;
30896;SDS011;64229;52.246;21.054;2024-03-06T03:11:04;40.77;;;19.57;;
30896;SDS011;64229;52.246;21.054;2024-03-06T03:13:30;42.63;;;19.05;;
30896;SDS011;64229;52.246;21.054;2024-03-06T03:15:58;35.13;;;18.75;;
30896;SDS011;64229;52.246;21.054;2024-03-06T03:18:23;39.63;;;17.95;;
30896;SDS011;64229;52.246;21.054;2024-03-06T03:20:48;38.00;;;18.40;;
30896;SDS011;64229;52.246;21.054;2024-03-06T03:23:13;40.05;;;18.77;;
30896;SDS011;64229;52.246;21.054;2024-03-06T03:25:40;36.78;;;17.77;;
30896;SDS011;64229;52.246;21.054;2024-03-06T03:28:06;36.72;;;17.95;;
30896;SDS011;64229;52.246;21.054;2024-03-06T03:30:32;37.75;;;18.65;;
30896;SDS011;64229;52.246;21.054;2024-03-06T03:32:57;37.20;;;17.77;;
30896;SDS011;64229;52.246;21.054;2024-03-06T03:35:23;43.65;;;18.10;;
30896;SDS011;64229;52.246;21.054;2024-03-06T03:37:53;41.65;;;18.95;;
30896;SDS011;64229;52.246;21.054;2024-03-06T03:40:18;34.33;;;17.35;;
30896;SDS011;64229;52.246;21.054;2024-03-06T03:42:44;35.50;;;16.75;;
30896;SDS011;64229;52.246;21.054;2024-03-06T03:45:09;41.28;;;18.42;;
30896;SDS011;64229;52.246;21.054;2024-03-06T03:47:35;35.70;;;17.58;;
30896;SDS011;64229;52.246;21.054;2024-03-06T03:50:00;35.72;;;17.65;;
30896;SDS011;64229;52.246;21.054;2024-03-06T03:52:25;36.05;;;17.85;;
30896;SDS011;64229;52.246;21.054;2024-03-06T03:54:51;37.75;;;17.77;;
30896;SDS011;64229;52.246;21.054;2024-03-06T03:57:16;35.42;;;16.85;;
30896;SDS011;64229;52.246;21.054;2024-03-06T03:59:42;38.95;;;16.92;;
30896;SDS011;64229;52.246;21.054;2024-03-06T04:02:08;38.05;;;17.85;;
30896;SDS011;64229;52.246;21.054;2024-03-06T04:04:33;34.28;;;17.77;;
30896;SDS011;64229;52.246;21.054;2024-03-06T04:06:59;38.45;;;17.17;;
30896;SDS011;64229;52.246;21.054;2024-03-06T04:09:27;40.30;;;17.40;;
30896;SDS011;64229;52.246;21.054;2024-03-06T04:11:52;34.22;;;16.23;;
30896;SDS011;64229;52.246;21.054;2024-03-06T04:14:17;42.58;;;17.23;;
30896;SDS011;64229;52.246;21.054;2024-03-06T04:16:45;33.63;;;16.75;;
30896;SDS011;64229;52.246;21.054;2024-03-06T04:19:10;33.00;;;15.95;;
30896;SDS011;64229;52.246;21.054;2024-03-06T04:21:40;35.47;;;15.88;;
30896;SDS011;64229;52.246;21.054;2024-03-06T04:24:07;40.22;;;17.35;;
30896;SDS011;64229;52.246;21.054;2024-03-06T04:26:32;31.65;;;16.52;;
30896;SDS011;64229;52.246;21.054;2024-03-06T04:28:57;34.78;;;17.13;;
30896;SDS011;64229;52.246;21.054;2024-03-06T04:31:23;35.45;;;16.45;;
30896;SDS011;64229;52.246;21.054;2024-03-06T04:33:48;32.35;;;15.57;;
30896;SDS011;64229;52.246;21.054;2024-03-06T04:36:13;31.65;;;15.00;;
30896;SDS011;64229;52.246;21.054;2024-03-06T04:38:39;36.65;;;17.10;;
30896;SDS011;64229;52.246;21.054;2024-03-06T04:41:05;34.28;;;16.83;;
30896;SDS011;64229;52.246;21.054;2024-03-06T04:43:31;40.22;;;16.60;;
30896;SDS011;64229;52.246;21.054;2024-03-06T04:45:56;43.13;;;16.67;;
30896;SDS011;64229;52.246;21.054;2024-03-06T04:48:22;35.70;;;16.27;;
30896;SDS011;64229;52.246;21.054;2024-03-06T04:50:47;32.70;;;16.30;;
30896;SDS011;64229;52.246;21.054;2024-03-06T04:53:12;37.22;;;16.55;;
30896;SDS011;64229;52.246;21.054;2024-03-06T04:55:38;36.20;;;16.30;;
30896;SDS011;64229;52.246;21.054;2024-03-06T04:58:03;36.45;;;17.45;;
30896;SDS011;64229;52.246;21.054;2024-03-06T05:00:29;37.33;;;16.08;;
30896;SDS011;64229;52.246;21.054;2024-03-06T05:02:54;39.38;;;16.83;;
30896;SDS011;64229;52.246;21.054;2024-03-06T05:05:20;34.22;;;16.38;;
30896;SDS011;64229;52.246;21.054;2024-03-06T05:07:46;34.90;;;16.67;;
30896;SDS011;64229;52.246;21.054;2024-03-06T05:10:11;36.90;;;16.33;;
30896;SDS011;64229;52.246;21.054;2024-03-06T05:12:37;38.77;;;16.33;;
30896;SDS011;64229;52.246;21.054;2024-03-06T05:15:02;33.67;;;16.80;;
30896;SDS011;64229;52.246;21.054;2024-03-06T05:17:28;38.30;;;17.13;;
30896;SDS011;64229;52.246;21.054;2024-03-06T05:19:53;39.38;;;17.40;;
30896;SDS011;64229;52.246;21.054;2024-03-06T05:22:19;39.15;;;16.63;;
30896;SDS011;64229;52.246;21.054;2024-03-06T05:24:46;33.30;;;16.58;;
30896;SDS011;64229;52.246;21.054;2024-03-06T05:27:11;37.58;;;15.35;;
30896;SDS011;64229;52.246;21.054;2024-03-06T05:29:41;36.97;;;15.07;;
30896;SDS011;64229;52.246;21.054;2024-03-06T05:32:06;127.32;;;49.60;;
30896;SDS011;64229;52.246;21.054;2024-03-06T05:34:32;61.05;;;24.40;;
30896;SDS011;64229;52.246;21.054;2024-03-06T05:36:58;37.30;;;17.45;;
30896;SDS011;64229;52.246;21.054;2024-03-06T05:39:24;36.28;;;17.02;;
30896;SDS011;64229;52.246;21.054;2024-03-06T05:41:49;41.00;;;19.63;;
30896;SDS011;64229;52.246;21.054;2024-03-06T05:44:14;39.95;;;16.55;;
30896;SDS011;64229;52.246;21.054;2024-03-06T05:46:39;32.13;;;15.60;;
30896;SDS011;64229;52.246;21.054;2024-03-06T05:49:05;31.05;;;16.23;;
30896;SDS011;64229;52.246;21.054;2024-03-06T05:51:30;32.70;;;15.93;;
30896;SDS011;64229;52.246;21.054;2024-03-06T05:53:56;34.35;;;16.65;;
30896;SDS011;64229;52.246;21.054;2024-03-06T05:56:21;35.05;;;16.13;;
30896;SDS011;64229;52.246;21.054;2024-03-06T05:58:47;33.00;;;16.25;;
30896;SDS011;64229;52.246;21.054;2024-03-06T06:01:13;33.10;;;14.80;;
30896;SDS011;64229;52.246;21.054;2024-03-06T06:03:40;40.10;;;16.23;;
30896;SDS011;64229;52.246;21.054;2024-03-06T06:06:06;35.90;;;17.65;;
30896;SDS011;64229;52.246;21.054;2024-03-06T06:08:31;35.72;;;15.68;;
30896;SDS011;64229;52.246;21.054;2024-03-06T06:10:56;35.60;;;15.73;;
30896;SDS011;64229;52.246;21.054;2024-03-06T06:13:22;32.53;;;14.52;;
30896;SDS011;64229;52.246;21.054;2024-03-06T06:15:47;100.80;;;40.60;;
30896;SDS011;64229;52.246;21.054;2024-03-06T06:18:12;52.92;;;19.88;;
30896;SDS011;64229;52.246;21.054;2024-03-06T06:20:38;34.47;;;14.13;;
30896;SDS011;64229;52.246;21.054;2024-03-06T06:23:03;33.67;;;14.90;;
30896;SDS011;64229;52.246;21.054;2024-03-06T06:25:29;30.15;;;13.80;;
30896;SDS011;64229;52.246;21.054;2024-03-06T06:27:54;30.25;;;13.15;;
30896;SDS011;64229;52.246;21.054;2024-03-06T06:30:20;26.83;;;12.13;;
30896;SDS011;64229;52.246;21.054;2024-03-06T06:32:45;30.20;;;12.83;;
30896;SDS011;64229;52.246;21.054;2024-03-06T06:35:10;28.63;;;12.63;;
30896;SDS011;64229;52.246;21.054;2024-03-06T06:37:39;26.42;;;12.93;;
30896;SDS011;64229;52.246;21.054;2024-03-06T06:40:07;31.08;;;12.95;;
30896;SDS011;64229;52.246;21.054;2024-03-06T06:42:34;28.00;;;11.90;;
30896;SDS011;64229;52.246;21.054;2024-03-06T06:45:00;26.95;;;12.00;;
30896;SDS011;64229;52.246;21.054;2024-03-06T06:47:26;30.52;;;12.88;;
30896;SDS011;64229;52.246;21.054;2024-03-06T06:49:51;210.07;;;88.05;;
30896;SDS011;64229;52.246;21.054;2024-03-06T06:52:17;37.20;;;16.13;;
30896;SDS011;64229;52.246;21.054;2024-03-06T06:54:42;24.35;;;12.23;;
30896;SDS011;64229;52.246;21.054;2024-03-06T06:57:07;34.13;;;13.50;;
30896;SDS011;64229;52.246;21.054;2024-03-06T06:59:33;28.20;;;12.32;;
30896;SDS011;64229;52.246;21.054;2024-03-06T07:01:59;31.55;;;12.90;;
30896;SDS011;64229;52.246;21.054;2024-03-06T07:04:25;28.95;;;12.18;;
30896;SDS011;64229;52.246;21.054;2024-03-06T07:06:50;27.90;;;12.73;;
30896;SDS011;64229;52.246;21.054;2024-03-06T07:09:16;25.45;;;11.57;;
30896;SDS011;64229;52.246;21.054;2024-03-06T07:11:41;29.80;;;11.45;;
30896;SDS011;64229;52.246;21.054;2024-03-06T07:14:07;26.20;;;12.35;;
30896;SDS011;64229;52.246;21.054;2024-03-06T07:16:32;25.02;;;11.60;;
30896;SDS011;64229;52.246;21.054;2024-03-06T07:18:58;27.83;;;11.60;;
30896;SDS011;64229;52.246;21.054;2024-03-06T07:21:24;25.73;;;11.52;;
30896;SDS011;64229;52.246;21.054;2024-03-06T07:23:50;26.98;;;12.05;;
30896;SDS011;64229;52.246;21.054;2024-03-06T07:26:15;28.08;;;11.98;;
30896;SDS011;64229;52.246;21.054;2024-03-06T07:28:40;26.05;;;11.57;;
30896;SDS011;64229;52.246;21.054;2024-03-06T07:31:05;22.93;;;11.53;;
30896;SDS011;64229;52.246;21.054;2024-03-06T07:33:31;21.77;;;12.00;;
30896;SDS011;64229;52.246;21.054;2024-03-06T07:35:59;24.35;;;11.18;;
30896;SDS011;64229;52.246;21.054;2024-03-06T07:38:24;27.05;;;11.07;;
30896;SDS011;64229;52.246;21.054;2024-03-06T07:40:49;27.47;;;10.63;;
30896;SDS011;64229;52.246;21.054;2024-03-06T07:43:14;28.80;;;11.18;;
30896;SDS011;64229;52.246;21.054;2024-03-06T07:45:40;22.35;;;11.15;;
30896;SDS011;64229;52.246;21.054;2024-03-06T07:48:06;28.17;;;12.45;;
30896;SDS011;64229;52.246;21.054;2024-03-06T07:50:31;22.17;;;10.80;;
30896;SDS011;64229;52.246;21.054;2024-03-06T07:52:56;24.38;;;10.75;;
30896;SDS011;64229;52.246;21.054;2024-03-06T07:55:22;23.52;;;10.90;;
30896;SDS011;64229;52.246;21.054;2024-03-06T07:57:47;25.75;;;11.52;;
30896;SDS011;64229;52.246;21.054;2024-03-06T08:00:13;24.95;;;10.70;;
30896;SDS011;64229;52.246;21.054;2024-03-06T08:02:42;30.65;;;11.30;;
30896;SDS011;64229;52.246;21.054;2024-03-06T08:05:09;26.17;;;11.25;;
30896;SDS011;64229;52.246;21.054;2024-03-06T08:07:37;29.02;;;12.38;;
30896;SDS011;64229;52.246;21.054;2024-03-06T08:10:02;27.52;;;11.18;;
30896;SDS011;64229;52.246;21.054;2024-03-06T08:12:30;25.02;;;11.63;;
30896;SDS011;64229;52.246;21.054;2024-03-06T08:14:56;31.27;;;11.65;;
30896;SDS011;64229;52.246;21.054;2024-03-06T08:17:21;29.00;;;12.23;;
30896;SDS011;64229;52.246;21.054;2024-03-06T08:19:46;23.60;;;11.85;;
30896;SDS011;64229;52.246;21.054;2024-03-06T08:22:11;26.35;;;11.82;;
30896;SDS011;64229;52.246;21.054;2024-03-06T08:24:37;27.98;;;12.27;;
30896;SDS011;64229;52.246;21.054;2024-03-06T08:27:02;24.92;;;11.07;;
30896;SDS011;64229;52.246;21.054;2024-03-06T08:29:28;28.10;;;12.20;;
30896;SDS011;64229;52.246;21.054;2024-03-06T08:31:53;31.10;;;12.10;;
30896;SDS011;64229;52.246;21.054;2024-03-06T08:34:22;27.77;;;12.02;;
30896;SDS011;64229;52.246;21.054;2024-03-06T08:36:49;29.33;;;12.85;;
30896;SDS011;64229;52.246;21.054;2024-03-06T08:39:14;26.92;;;11.88;;
30896;SDS011;64229;52.246;21.054;2024-03-06T08:41:41;30.05;;;11.65;;
30896;SDS011;64229;52.246;21.054;2024-03-06T08:44:07;27.92;;;11.98;;
30896;SDS011;64229;52.246;21.054;2024-03-06T08:46:32;30.25;;;11.85;;
30896;SDS011;64229;52.246;21.054;2024-03-06T08:48:58;33.25;;;14.15;;
30896;SDS011;64229;52.246;21.054;2024-03-06T08:51:23;33.85;;;12.27;;
30896;SDS011;64229;52.246;21.054;2024-03-06T08:53:50;29.17;;;13.18;;
30896;SDS011;64229;52.246;21.054;2024-03-06T08:56:16;27.65;;;11.60;;
30896;SDS011;64229;52.246;21.054;2024-03-06T08:58:41;25.08;;;10.93;;
30896;SDS011;64229;52.246;21.054;2024-03-06T09:01:07;26.05;;;10.88;;
30896;SDS011;64229;52.246;21.054;2024-03-06T09:03:32;26.90;;;12.02;;
30896;SDS011;64229;52.246;21.054;2024-03-06T09:05:57;28.52;;;12.70;;
30896;SDS011;64229;52.246;21.054;2024-03-06T09:08:24;32.58;;;12.00;;
30896;SDS011;64229;52.246;21.054;2024-03-06T09:10:50;24.33;;;11.23;;
30896;SDS011;64229;52.246;21.054;2024-03-06T09:13:15;27.95;;;11.95;;
30896;SDS011;64229;52.246;21.054;2024-03-06T09:15:40;34.28;;;14.35;;
30896;SDS011;64229;52.246;21.054;2024-03-06T09:18:06;31.63;;;13.63;;
30896;SDS011;64229;52.246;21.054;2024-03-06T09:20:32;27.27;;;12.02;;
30896;SDS011;64229;52.246;21.054;2024-03-06T09:22:57;26.90;;;10.60;;
30896;SDS011;64229;52.246;21.054;2024-03-06T09:25:24;24.20;;;10.93;;
30896;SDS011;64229;52.246;21.054;2024-03-06T09:27:49;25.75;;;10.82;;
30896;SDS011;64229;52.246;21.054;2024-03-06T09:30:14;33.78;;;11.18;;
30896;SDS011;64229;52.246;21.054;2024-03-06T09:32:40;21.17;;;10.57;;
30896;SDS011;64229;52.246;21.054;2024-03-06T09:35:06;25.10;;;10.18;;
30896;SDS011;64229;52.246;21.054;2024-03-06T09:37:32;24.17;;;10.68;;
30896;SDS011;64229;52.246;21.054;2024-03-06T09:39:57;22.67;;;10.93;;
30896;SDS011;64229;52.246;21.054;2024-03-06T09:42:22;33.03;;;12.33;;
30896;SDS011;64229;52.246;21.054;2024-03-06T09:44:48;24.95;;;11.45;;
30896;SDS011;64229;52.246;21.054;2024-03-06T09:47:13;25.80;;;10.63;;
30896;SDS011;64229;52.246;21.054;2024-03-06T09:49:39;31.30;;;10.68;;
30896;SDS011;64229;52.246;21.054;2024-03-06T09:52:05;25.95;;;10.10;;
30896;SDS011;64229;52.246;21.054;2024-03-06T09:54:31;24.60;;;10.27;;
30896;SDS011;64229;52.246;21.054;2024-03-06T09:56:56;22.85;;;10.65;;
30896;SDS011;64229;52.246;21.054;2024-03-06T09:59:23;26.65;;;10.77;;
30896;SDS011;64229;52.246;21.054;2024-03-06T10:01:53;28.27;;;11.55;;
30896;SDS011;64229;52.246;21.054;2024-03-06T10:04:26;23.52;;;10.35;;
30896;SDS011;64229;52.246;21.054;2024-03-06T10:06:53;27.13;;;11.27;;
30896;SDS011;64229;52.246;21.054;2024-03-06T10:09:22;27.98;;;10.93;;
30896;SDS011;64229;52.246;21.054;2024-03-06T10:11:48;27.25;;;10.73;;
30896;SDS011;64229;52.246;21.054;2024-03-06T10:14:14;24.58;;;11.88;;
30896;SDS011;64229;52.246;21.054;2024-03-06T10:16:58;27.25;;;11.63;;
30896;SDS011;64229;52.246;21.054;2024-03-06T10:19:25;25.85;;;10.90;;
30896;SDS011;64229;52.246;21.054;2024-03-06T10:21:52;29.80;;;11.65;;
30896;SDS011;64229;52.246;21.054;2024-03-06T10:24:19;29.13;;;10.95;;
30896;SDS011;64229;52.246;21.054;2024-03-06T10:26:49;27.35;;;11.30;;
30896;SDS011;64229;52.246;21.054;2024-03-06T10:29:18;25.50;;;11.25;;
30896;SDS011;64229;52.246;21.054;2024-03-06T10:31:49;27.50;;;11.63;;
30896;SDS011;64229;52.246;21.054;2024-03-06T10:34:16;53.10;;;18.88;;
30896;SDS011;64229;52.246;21.054;2024-03-06T10:36:42;30.50;;;12.23;;
30896;SDS011;64229;52.246;21.054;2024-03-06T10:39:08;22.73;;;10.13;;
30896;SDS011;64229;52.246;21.054;2024-03-06T10:41:36;29.58;;;10.98;;
30896;SDS011;64229;52.246;21.054;2024-03-06T10:44:03;21.83;;;9.80;;
30896;SDS011;64229;52.246;21.054;2024-03-06T10:46:29;27.25;;;10.98;;
30896;SDS011;64229;52.246;21.054;2024-03-06T10:48:56;25.98;;;9.98;;
30896;SDS011;64229;52.246;21.054;2024-03-06T10:51:23;25.23;;;10.50;;
30896;SDS011;64229;52.246;21.054;2024-03-06T10:53:51;18.20;;;8.85;;
30896;SDS011;64229;52.246;21.054;2024-03-06T10:56:17;21.10;;;9.90;;
30896;SDS011;64229;52.246;21.054;2024-03-06T10:58:44;19.30;;;9.30;;
30896;SDS011;64229;52.246;21.054;2024-03-06T11:01:14;17.85;;;9.30;;
30896;SDS011;64229;52.246;21.054;2024-03-06T11:03:39;19.70;;;9.65;;
30896;SDS011;64229;52.246;21.054;2024-03-06T11:06:05;19.90;;;8.95;;
30896;SDS011;64229;52.246;21.054;2024-03-06T11:08:32;17.75;;;8.25;;
30896;SDS011;64229;52.246;21.054;2024-03-06T11:11:18;21.33;;;9.20;;
30896;SDS011;64229;52.246;21.054;2024-03-06T11:13:44;20.77;;;8.27;;
30896;SDS011;64229;52.246;21.054;2024-03-06T11:16:09;19.20;;;8.15;;
30896;SDS011;64229;52.246;21.054;2024-03-06T11:23:28;26.40;;;9.00;;
30896;SDS011;64229;52.246;21.054;2024-03-06T11:26:06;27.80;;;10.93;;
30896;SDS011;64229;52.246;21.054;2024-03-06T11:28:32;29.67;;;12.60;;
30896;SDS011;64229;52.246;21.054;2024-03-06T11:31:03;17.50;;;8.57;;
30896;SDS011;64229;52.246;21.054;2024-03-06T11:33:42;18.83;;;7.70;;
30896;SDS011;64229;52.246;21.054;2024-03-06T11:36:25;18.73;;;7.75;;
30896;SDS011;64229;52.246;21.054;2024-03-06T11:38:55;15.88;;;7.32;;
30896;SDS011;64229;52.246;21.054;2024-03-06T11:41:22;12.25;;;6.03;;
30896;SDS011;64229;52.246;21.054;2024-03-06T11:43:49;13.95;;;6.72;;
30896;SDS011;64229;52.246;21.054;2024-03-06T11:46:17;13.63;;;6.72;;
30896;SDS011;64229;52.246;21.054;2024-03-06T11:48:45;14.75;;;7.07;;
30896;SDS011;64229;52.246;21.054;2024-03-06T11:51:16;43.63;;;19.40;;
30896;SDS011;64229;52.246;21.054;2024-03-06T11:53:42;18.35;;;7.22;;
30896;SDS011;64229;52.246;21.054;2024-03-06T11:56:09;17.77;;;6.45;;
30896;SDS011;64229;52.246;21.054;2024-03-06T11:58:35;18.52;;;6.55;;
30896;SDS011;64229;52.246;21.054;2024-03-06T12:01:00;11.95;;;6.18;;
30896;SDS011;64229;52.246;21.054;2024-03-06T12:03:26;13.32;;;5.95;;
30896;SDS011;64229;52.246;21.054;2024-03-06T12:05:52;14.93;;;6.20;;
30896;SDS011;64229;52.246;21.054;2024-03-06T12:08:18;11.35;;;5.70;;
30896;SDS011;64229;52.246;21.054;2024-03-06T12:10:45;11.77;;;5.32;;
30896;SDS011;64229;52.246;21.054;2024-03-06T12:13:12;14.35;;;5.63;;
30896;SDS011;64229;52.246;21.054;2024-03-06T12:15:38;13.63;;;5.00;;
30896;SDS011;64229;52.246;21.054;2024-03-06T12:18:03;14.38;;;5.38;;
30896;SDS011;64229;52.246;21.054;2024-03-06T12:20:30;16.50;;;5.68;;
30896;SDS011;64229;52.246;21.054;2024-03-06T12:22:56;14.40;;;5.25;;
30896;SDS011;64229;52.246;21.054;2024-03-06T12:25:23;8.88;;;4.68;;
30896;SDS011;64229;52.246;21.054;2024-03-06T12:27:50;13.45;;;5.22;;
30896;SDS011;64229;52.246;21.054;2024-03-06T12:30:20;8.45;;;4.57;;
30896;SDS011;64229;52.246;21.054;2024-03-06T12:33:00;13.68;;;5.50;;
30896;SDS011;64229;52.246;21.054;2024-03-06T12:35:29;12.00;;;4.78;;
30896;SDS011;64229;52.246;21.054;2024-03-06T12:37:55;16.08;;;5.40;;
30896;SDS011;64229;52.246;21.054;2024-03-06T12:40:20;10.93;;;5.22;;
30896;SDS011;64229;52.246;21.054;2024-03-06T12:42:46;11.23;;;5.20;;
30896;SDS011;64229;52.246;21.054;2024-03-06T12:45:12;14.77;;;5.82;;
30896;SDS011;64229;52.246;21.054;2024-03-06T12:47:42;14.25;;;5.32;;
30896;SDS011;64229;52.246;21.054;2024-03-06T12:50:08;12.98;;;5.05;;
30896;SDS011;64229;52.246;21.054;2024-03-06T12:52:35;12.32;;;5.65;;
30896;SDS011;64229;52.246;21.054;2024-03-06T12:55:01;10.75;;;4.85;;
30896;SDS011;64229;52.246;21.054;2024-03-06T12:57:26;13.32;;;4.90;;
30896;SDS011;64229;52.246;21.054;2024-03-06T12:59:52;9.05;;;4.68;;
30896;SDS011;64229;52.246;21.054;2024-03-06T13:02:18;12.90;;;5.30;;
30896;SDS011;64229;52.246;21.054;2024-03-06T13:04:43;14.33;;;5.60;;
30896;SDS011;64229;52.246;21.054;2024-03-06T13:07:08;11.82;;;5.70;;
30896;SDS011;64229;52.246;21.054;2024-03-06T13:09:34;13.23;;;5.57;;
30896;SDS011;64229;52.246;21.054;2024-03-06T13:11:59;12.50;;;5.13;;
30896;SDS011;64229;52.246;21.054;2024-03-06T13:14:24;12.83;;;6.10;;
30896;SDS011;64229;52.246;21.054;2024-03-06T13:16:49;11.87;;;5.43;;
30896;SDS011;64229;52.246;21.054;2024-03-06T13:19:15;12.20;;;5.65;;
30896;SDS011;64229;52.246;21.054;2024-03-06T13:21:40;14.00;;;5.03;;
30896;SDS011;64229;52.246;21.054;2024-03-06T13:24:05;12.13;;;5.15;;
30896;SDS011;64229;52.246;21.054;2024-03-06T13:26:30;13.48;;;5.65;;
30896;SDS011;64229;52.246;21.054;2024-03-06T13:28:56;9.32;;;5.13;;
30896;SDS011;64229;52.246;21.054;2024-03-06T13:31:21;13.73;;;5.55;;
30896;SDS011;64229;52.246;21.054;2024-03-06T13:33:46;12.70;;;5.63;;
30896;SDS011;64229;52.246;21.054;2024-03-06T13:36:14;15.70;;;5.82;;
30896;SDS011;64229;52.246;21.054;2024-03-06T13:38:40;11.13;;;5.72;;
30896;SDS011;64229;52.246;21.054;2024-03-06T13:41:05;12.95;;;5.57;;
30896;SDS011;64229;52.246;21.054;2024-03-06T13:43:30;14.70;;;6.22;;
30896;SDS011;64229;52.246;21.054;2024-03-06T13:45:56;15.02;;;6.63;;
30896;SDS011;64229;52.246;21.054;2024-03-06T13:48:21;16.05;;;6.47;;
30896;SDS011;64229;52.246;21.054;2024-03-06T13:50:47;16.35;;;5.32;;
30896;SDS011;64229;52.246;21.054;2024-03-06T13:53:13;11.60;;;5.55;;
30896;SDS011;64229;52.246;21.054;2024-03-06T13:55:38;14.57;;;5.85;;
30896;SDS011;64229;52.246;21.054;2024-03-06T13:58:05;12.52;;;5.80;;
30896;SDS011;64229;52.246;21.054;2024-03-06T14:00:30;15.88;;;6.03;;
30896;SDS011;64229;52.246;21.054;2024-03-06T14:02:56;14.40;;;6.20;;
30896;SDS011;64229;52.246;21.054;2024-03-06T14:05:21;14.02;;;5.97;;
30896;SDS011;64229;52.246;21.054;2024-03-06T14:07:52;13.38;;;5.90;;
30896;SDS011;64229;52.246;21.054;2024-03-06T14:10:18;13.80;;;6.30;;